Time;durP1;ratioP1;P1;durP2;ratioP2;P2;SDS_P1;SDS_P2;PMS_P1;PMS_P2;Temp;Humidity;BMP_temperature;BMP_pressure;BME280_temperature;BME280_humidity;BME280_pressure;Samples;Min_cycle;Max_cycle;Signal;HPM_P1;HPM_P2
2022/04/01 00:00:23;;;;;;;;;;;19.30;99.90;;;;;;5096768;28;19919;-62
2022/04/01 00:02:50;;;;;;;;;;;19.30;99.90;;;;;;5091990;28;19924;-59
2022/04/01 00:05:17;;;;;;;;;;;19.20;99.90;;;;;;5097107;28;19920;-59
2022/04/01 00:07:44;;;;;;;;;;;19.30;99.90;;;;;;5096136;28;19927;-61
2022/04/01 00:10:12;;;;;;;;;;;19.20;99.90;;;;;;5095504;28;19931;-59
2022/04/01 00:12:43;;;;;;;;;;;19.20;99.90;;;;;;5097540;28;19924;-61
2022/04/01 00:15:12;;;;;;;;;;;19.20;99.90;;;;;;5096801;28;19931;-60
2022/04/01 00:17:39;;;;;;;;;;;19.20;99.90;;;;;;5094373;28;19947;-60
2022/04/01 00:20:07;;;;;;;;;;;19.20;99.90;;;;;;5095829;28;19927;-60
2022/04/01 00:22:34;;;;;;;;;;;19.20;99.90;;;;;;5095864;28;19992;-60
2022/04/01 00:25:01;;;;;;;;;;;19.10;99.90;;;;;;5096268;28;19923;-58
2022/04/01 00:27:28;;;;;;;;;;;19.20;99.90;;;;;;5090583;28;19958;-60
2022/04/01 00:29:55;;;;;;;;;;;19.20;99.90;;;;;;5080043;28;19976;-61
2022/04/01 00:32:23;;;;;;;;;;;19.20;99.90;;;;;;5096069;28;20352;-60
2022/04/01 00:34:51;;;;;;;;;;;19.20;99.90;;;;;;5098533;28;19934;-61
2022/04/01 00:37:18;;;;;;;;;;;19.20;99.90;;;;;;5108776;28;19937;-59
2022/04/01 00:39:45;;;;;;;;;;;19.20;99.90;;;;;;5092692;28;20391;-60
2022/04/01 00:42:13;;;;;;;;;;;19.20;99.90;;;;;;5097835;28;19956;-59
2022/04/01 00:44:40;;;;;;;;;;;19.20;99.90;;;;;;5108625;28;19919;-61
2022/04/01 00:47:09;;;;;;;;;;;19.10;99.90;;;;;;5102444;28;19935;-59
2022/04/01 00:49:37;;;;;;;;;;;19.10;99.90;;;;;;5098298;28;19932;-58
2022/04/01 00:52:06;;;;;;;;;;;19.10;99.90;;;;;;5098950;28;19942;-60
2022/04/01 00:54:35;;;;;;;;;;;19.10;99.90;;;;;;5082415;28;20004;-61
2022/04/01 00:57:03;;;;;;;;;;;19.10;99.90;;;;;;5084730;28;20266;-60
2022/04/01 00:59:30;;;;;;;;;;;19.10;99.90;;;;;;5097243;28;19950;-61
2022/04/01 01:01:57;;;;;;;;;;;19.10;99.90;;;;;;5073809;28;19942;-58
2022/04/01 01:04:24;;;;;;;;;;;19.10;99.90;;;;;;5100045;28;19919;-61
2022/04/01 01:06:52;;;;;;;;;;;19.00;99.90;;;;;;5098734;28;20672;-60
2022/04/01 01:09:21;;;;;;;;;;;19.00;99.90;;;;;;5098749;28;19935;-60
2022/04/01 01:11:51;;;;;;;;;;;19.00;99.90;;;;;;5097168;28;19923;-61
2022/04/01 01:14:30;;;;;;;;;;;19.00;99.90;;;;;;5068575;28;20385;-61
2022/04/01 01:16:58;;;;;;;;;;;19.00;99.90;;;;;;5098053;28;19923;-61
2022/04/01 01:19:26;;;;;;;;;;;19.00;99.90;;;;;;5096983;28;19928;-60
2022/04/01 01:21:54;;;;;;;;;;;19.00;99.90;;;;;;5098798;28;19919;-61
2022/04/01 01:24:28;;;;;;;;;;;19.00;99.90;;;;;;5096946;28;19923;-58
2022/04/01 01:26:55;;;;;;;;;;;19.00;99.90;;;;;;5078509;28;19928;-59
2022/04/01 01:29:28;;;;;;;;;;;19.00;99.90;;;;;;5081772;28;19938;-59
2022/04/01 01:31:57;;;;;;;;;;;19.10;99.90;;;;;;5088044;28;19928;-58
2022/04/01 01:34:25;;;;;;;;;;;19.00;99.90;;;;;;5090790;28;19928;-58
2022/04/01 01:36:52;;;;;;;;;;;19.00;99.90;;;;;;5083756;28;19927;-59
2022/04/01 01:39:20;;;;;;;;;;;19.00;99.90;;;;;;5095002;28;19924;-61
2022/04/01 01:41:49;;;;;;;;;;;19.00;99.90;;;;;;5081185;28;20047;-58
2022/04/01 01:44:17;;;;;;;;;;;18.90;99.90;;;;;;5080889;28;19924;-60
2022/04/01 01:46:44;;;;;;;;;;;18.90;99.90;;;;;;5082185;28;19920;-59
2022/04/01 01:49:12;;;;;;;;;;;18.90;99.90;;;;;;5086536;28;20422;-62
2022/04/01 01:54:43;;;;;;;;;;;18.90;99.90;;;;;;5076588;28;20289;-62
2022/04/01 01:57:14;;;;;;;;;;;18.90;99.90;;;;;;5079568;28;20384;-62
2022/04/01 01:59:42;;;;;;;;;;;18.90;99.90;;;;;;5079838;28;19924;-61
2022/04/01 02:02:10;;;;;;;;;;;18.80;99.90;;;;;;5067653;28;19920;-61
2022/04/01 02:04:41;;;;;;;;;;;18.80;99.90;;;;;;5096888;28;19931;-60
2022/04/01 02:07:09;;;;;;;;;;;18.80;99.90;;;;;;5082565;28;20505;-59
2022/04/01 02:09:37;;;;;;;;;;;18.80;99.90;;;;;;5103293;28;19950;-60
2022/04/01 02:12:04;;;;;;;;;;;18.80;99.90;;;;;;5097520;28;19935;-61
2022/04/01 02:14:34;;;;;;;;;;;18.80;99.90;;;;;;5082032;28;19930;-61
2022/04/01 02:17:03;;;;;;;;;;;18.80;99.90;;;;;;5082600;28;19920;-58
2022/04/01 02:19:31;;;;;;;;;;;18.80;99.90;;;;;;5087621;28;19924;-59
2022/04/01 02:22:00;;;;;;;;;;;18.80;99.90;;;;;;5081047;28;19934;-58
2022/04/01 02:24:31;;;;;;;;;;;18.80;99.90;;;;;;5080341;28;19923;-61
2022/04/01 02:26:58;;;;;;;;;;;18.80;99.90;;;;;;5083057;28;19924;-59
2022/04/01 02:29:26;;;;;;;;;;;18.80;99.90;;;;;;5082586;28;19938;-58
2022/04/01 02:32:16;;;;;;;;;;;18.80;99.90;;;;;;5070743;28;19927;-57
2022/04/01 02:34:58;;;;;;;;;;;18.80;99.90;;;;;;5099247;28;19928;-56
2022/04/01 02:37:25;;;;;;;;;;;18.80;99.90;;;;;;5093022;28;19924;-60
2022/04/01 02:39:56;;;;;;;;;;;18.70;99.90;;;;;;5088318;28;20009;-59
2022/04/01 02:42:27;;;;;;;;;;;18.70;99.90;;;;;;5086857;28;19927;-58
2022/04/01 02:44:54;;;;;;;;;;;18.70;99.90;;;;;;5087293;28;19954;-61
2022/04/01 02:47:21;;;;;;;;;;;18.70;99.90;;;;;;5097380;28;19938;-60
2022/04/01 02:49:49;;;;;;;;;;;18.70;99.90;;;;;;5076775;28;19920;-61
2022/04/01 02:52:16;;;;;;;;;;;18.70;99.90;;;;;;5083591;28;19929;-59
2022/04/01 02:54:45;;;;;;;;;;;18.70;99.90;;;;;;5090971;28;19924;-61
2022/04/01 02:57:13;;;;;;;;;;;18.70;99.90;;;;;;5102719;28;19924;-60
2022/04/01 02:59:42;;;;;;;;;;;18.70;99.90;;;;;;5076392;28;20408;-60
2022/04/01 03:02:10;;;;;;;;;;;18.70;99.90;;;;;;5082239;28;20376;-58
2022/04/01 03:04:37;;;;;;;;;;;18.70;99.90;;;;;;5074891;28;19923;-62
2022/04/01 03:07:04;;;;;;;;;;;18.70;99.90;;;;;;5090312;28;19931;-60
2022/04/01 03:09:33;;;;;;;;;;;18.60;99.90;;;;;;5081694;28;19931;-61
2022/04/01 03:12:07;;;;;;;;;;;18.60;99.90;;;;;;5080475;28;19923;-60
2022/04/01 03:15:02;;;;;;;;;;;18.60;99.90;;;;;;5075689;28;19923;-61
2022/04/01 03:17:33;;;;;;;;;;;18.60;99.90;;;;;;5084514;28;19931;-60
2022/04/01 03:20:13;;;;;;;;;;;18.60;99.90;;;;;;5083109;28;19924;-61
2022/04/01 03:22:43;;;;;;;;;;;18.60;99.90;;;;;;5084256;28;19993;-61
2022/04/01 03:25:14;;;;;;;;;;;18.60;99.90;;;;;;5085581;28;19923;-61
2022/04/01 03:28:01;;;;;;;;;;;18.60;99.90;;;;;;5097000;28;19923;-60
2022/04/01 03:30:29;;;;;;;;;;;18.60;99.90;;;;;;5073500;28;20406;-60
2022/04/01 03:32:56;;;;;;;;;;;18.60;99.90;;;;;;5095636;28;19923;-60
2022/04/01 03:35:24;;;;;;;;;;;18.60;99.90;;;;;;5106141;28;19950;-61
2022/04/01 03:37:51;;;;;;;;;;;18.60;99.90;;;;;;5086057;28;20364;-58
2022/04/01 03:40:19;;;;;;;;;;;18.60;99.90;;;;;;5081351;28;19924;-59
2022/04/01 03:42:50;;;;;;;;;;;18.60;99.90;;;;;;5077670;28;19954;-59
2022/04/01 03:45:17;;;;;;;;;;;18.60;99.90;;;;;;5084889;28;19927;-59
2022/04/01 03:48:10;;;;;;;;;;;18.60;99.90;;;;;;5087233;28;19928;-60
2022/04/01 03:50:39;;;;;;;;;;;18.60;99.90;;;;;;5068625;28;19938;-59
2022/04/01 03:53:07;;;;;;;;;;;18.60;99.90;;;;;;5086197;28;19930;-60
2022/04/01 03:55:36;;;;;;;;;;;18.60;99.90;;;;;;5074271;28;20304;-59
2022/04/01 03:58:25;;;;;;;;;;;18.70;99.90;;;;;;5098362;28;20292;-60
2022/04/01 04:01:02;;;;;;;;;;;19.00;99.90;;;;;;5100566;28;19924;-61
2022/04/01 04:03:31;;;;;;;;;;;19.20;99.90;;;;;;5077817;28;20489;-62
2022/04/01 04:05:59;;;;;;;;;;;19.40;99.90;;;;;;5086980;28;19924;-61
2022/04/01 04:08:26;;;;;;;;;;;19.50;99.90;;;;;;5070098;28;19936;-64
2022/04/01 04:10:56;;;;;;;;;;;19.70;99.90;;;;;;5076394;28;19923;-60
2022/04/01 04:13:36;;;;;;;;;;;19.90;99.90;;;;;;5075854;28;20308;-60
2022/04/01 04:16:21;;;;;;;;;;;20.10;99.90;;;;;;5078859;28;20434;-61
2022/04/01 04:18:51;;;;;;;;;;;20.30;99.90;;;;;;5076564;28;20407;-60
2022/04/01 04:21:27;;;;;;;;;;;20.50;99.90;;;;;;5076391;28;19931;-61
2022/04/01 04:23:55;;;;;;;;;;;20.60;99.90;;;;;;5076802;28;19928;-60
2022/04/01 04:26:32;;;;;;;;;;;20.80;99.90;;;;;;5079963;28;20195;-61
2022/04/01 04:29:13;;;;;;;;;;;21.00;99.90;;;;;;5080635;28;19927;-62
2022/04/01 04:32:08;;;;;;;;;;;21.20;99.90;;;;;;5072134;28;19924;-60
2022/04/01 04:34:36;;;;;;;;;;;21.40;99.90;;;;;;5079141;28;19924;-58
2022/04/01 04:37:09;;;;;;;;;;;21.50;99.90;;;;;;5077726;28;19927;-59
2022/04/01 04:39:43;;;;;;;;;;;21.60;99.90;;;;;;5078718;28;19928;-61
2022/04/01 04:42:12;;;;;;;;;;;21.70;99.90;;;;;;5077940;28;20281;-61
2022/04/01 04:44:39;;;;;;;;;;;21.80;99.90;;;;;;5077465;28;20403;-63
2022/04/01 04:47:11;;;;;;;;;;;21.90;99.90;;;;;;5077011;28;19939;-60
2022/04/01 04:49:41;;;;;;;;;;;21.90;99.90;;;;;;5066799;28;19936;-61
2022/04/01 04:52:09;;;;;;;;;;;22.00;99.90;;;;;;5078807;28;20434;-61
2022/04/01 04:54:44;;;;;;;;;;;22.00;99.90;;;;;;5077117;28;19920;-60
2022/04/01 04:57:35;;;;;;;;;;;21.90;99.90;;;;;;5083383;28;19928;-61
2022/04/01 05:00:05;;;;;;;;;;;22.00;99.90;;;;;;5077904;28;20007;-60
2022/04/01 05:03:12;;;;;;;;;;;21.90;99.90;;;;;;5075729;28;20320;-59
2022/04/01 05:05:43;;;;;;;;;;;21.90;99.90;;;;;;5077026;28;20324;-61
2022/04/01 05:08:33;;;;;;;;;;;21.80;99.90;;;;;;5102405;28;20379;-59
2022/04/01 05:11:28;;;;;;;;;;;21.70;99.90;;;;;;5105394;28;19931;-61
2022/04/01 05:13:58;;;;;;;;;;;21.70;99.90;;;;;;5099611;28;20530;-60
2022/04/01 05:16:31;;;;;;;;;;;21.60;99.90;;;;;;5101944;28;19924;-61
2022/04/01 05:19:04;;;;;;;;;;;21.50;99.90;;;;;;5085757;28;19931;-62
2022/04/01 05:21:41;;;;;;;;;;;21.50;99.90;;;;;;5085525;28;19927;-60
2022/04/01 05:24:12;;;;;;;;;;;21.40;99.90;;;;;;5085220;28;19927;-61
2022/04/01 05:26:45;;;;;;;;;;;21.40;99.90;;;;;;5085494;28;19923;-60
2022/04/01 05:29:32;;;;;;;;;;;21.40;99.90;;;;;;5106432;28;19923;-61
2022/04/01 05:32:02;;;;;;;;;;;21.40;99.90;;;;;;5081537;28;20300;-57
2022/04/01 05:34:30;;;;;;;;;;;21.40;99.90;;;;;;5081302;28;19930;-60
2022/04/01 05:36:57;;;;;;;;;;;21.30;99.90;;;;;;5082226;28;20426;-60
2022/04/01 05:39:28;;;;;;;;;;;21.30;99.90;;;;;;5100963;27;19924;-62
2022/04/01 05:42:00;;;;;;;;;;;21.30;99.90;;;;;;5084704;28;19927;-63
2022/04/01 05:44:35;;;;;;;;;;;21.30;99.90;;;;;;5081785;28;19927;-61
2022/04/01 05:47:06;;;;;;;;;;;21.20;99.90;;;;;;5081036;28;20388;-59
2022/04/01 05:49:38;;;;;;;;;;;21.20;99.90;;;;;;5097974;28;19930;-62
2022/04/01 05:52:08;;;;;;;;;;;21.10;99.90;;;;;;5099638;28;20439;-61
2022/04/01 05:54:38;;;;;;;;;;;21.10;99.90;;;;;;5079691;28;20015;-59
2022/04/01 05:57:07;;;;;;;;;;;21.10;99.90;;;;;;5079930;28;19923;-60
2022/04/01 05:59:35;;;;;;;;;;;21.00;99.90;;;;;;5083574;28;19928;-62
2022/04/01 06:02:18;;;;;;;;;;;21.00;99.90;;;;;;5084431;28;20009;-63
2022/04/01 06:04:45;;;;;;;;;;;20.90;99.90;;;;;;5097809;28;19931;-63
2022/04/01 06:07:31;;;;;;;;;;;20.90;99.90;;;;;;5080464;28;20292;-61
2022/04/01 06:10:07;;;;;;;;;;;20.90;99.90;;;;;;5078417;28;20356;-63
2022/04/01 06:12:45;;;;;;;;;;;20.90;99.90;;;;;;5094436;28;19924;-62
2022/04/01 06:15:49;;;;;;;;;;;20.90;99.90;;;;;;5091284;28;19927;-62
2022/04/01 06:18:38;;;;;;;;;;;20.80;99.90;;;;;;5103579;28;20512;-59
2022/04/01 06:21:08;;;;;;;;;;;20.70;99.90;;;;;;5080506;28;20412;-60
2022/04/01 06:23:50;;;;;;;;;;;19.50;95.00;;;;;;5062675;28;20371;-60
2022/04/01 06:26:18;;;;;;;;;;;19.20;97.50;;;;;;5086388;28;20427;-60
2022/04/01 06:28:54;;;;;;;;;;;19.50;98.10;;;;;;5084611;28;19935;-60
2022/04/01 06:31:22;;;;;;;;;;;19.90;98.10;;;;;;5096073;28;19933;-56
2022/04/01 06:33:57;;;;;;;;;;;20.20;98.20;;;;;;5077761;28;19931;-58
2022/04/01 06:36:41;;;;;;;;;;;20.40;98.40;;;;;;5100264;28;20385;-58
2022/04/01 06:39:17;;;;;;;;;;;20.60;98.70;;;;;;5079047;28;19999;-58
2022/04/01 06:41:47;;;;;;;;;;;20.80;98.80;;;;;;5081632;28;19928;-59
2022/04/01 06:44:33;;;;;;;;;;;20.90;99.00;;;;;;5106819;28;20407;-58
2022/04/01 06:47:18;;;;;;;;;;;21.10;99.40;;;;;;5102122;28;19931;-57
2022/04/01 06:49:48;;;;;;;;;;;21.30;99.60;;;;;;5079274;28;19994;-56
2022/04/01 06:52:34;;;;;;;;;;;21.40;99.90;;;;;;5102428;28;19927;-56
2022/04/01 06:55:19;;;;;;;;;;;21.50;99.90;;;;;;5102746;28;19924;-60
2022/04/01 06:58:00;;;;;;;;;;;21.50;99.90;;;;;;5084158;28;19930;-59
2022/04/01 07:00:37;;;;;;;;;;;21.50;99.90;;;;;;5070803;28;19924;-56
2022/04/01 07:03:05;;;;;;;;;;;21.60;99.90;;;;;;5092222;28;20028;-57
2022/04/01 07:05:34;;;;;;;;;;;21.60;99.90;;;;;;5102453;28;20403;-59
2022/04/01 07:08:03;;;;;;;;;;;21.60;99.90;;;;;;5089356;28;20010;-59
2022/04/01 07:10:31;;;;;;;;;;;21.50;99.90;;;;;;5100224;28;19946;-57
2022/04/01 07:12:59;;;;;;;;;;;21.50;99.90;;;;;;5099929;28;19920;-62
2022/04/01 07:15:26;;;;;;;;;;;21.50;99.90;;;;;;5092597;28;20316;-63
2022/04/01 07:17:54;;;;;;;;;;;21.50;99.90;;;;;;5086530;28;20312;-65
2022/04/01 07:20:22;;;;;;;;;;;21.50;99.90;;;;;;5083946;28;20506;-61
2022/04/01 07:22:53;;;;;;;;;;;21.50;99.90;;;;;;5076697;28;19923;-63
2022/04/01 07:25:23;;;;;;;;;;;21.40;99.90;;;;;;5098917;28;19924;-63
2022/04/01 07:27:51;;;;;;;;;;;21.40;99.90;;;;;;5081324;28;20318;-63
2022/04/01 07:30:18;;;;;;;;;;;21.40;99.90;;;;;;5097104;28;20384;-63
2022/04/01 07:32:47;;;;;;;;;;;21.40;99.90;;;;;;5093251;28;19943;-59
2022/04/01 07:35:14;;;;;;;;;;;21.30;99.90;;;;;;5095031;28;20383;-59
2022/04/01 07:37:42;;;;;;;;;;;21.30;99.90;;;;;;5093134;28;20002;-61
2022/04/01 07:40:21;;;;;;;;;;;21.20;99.90;;;;;;5100249;28;19928;-62
2022/04/01 07:42:49;;;;;;;;;;;21.30;99.90;;;;;;5089805;28;19924;-62
2022/04/01 07:45:17;;;;;;;;;;;21.20;99.90;;;;;;5096166;28;19924;-58
2022/04/01 07:47:45;;;;;;;;;;;21.20;99.90;;;;;;5101464;28;19924;-60
2022/04/01 07:50:13;;;;;;;;;;;21.10;99.90;;;;;;5100717;28;19923;-60
2022/04/01 07:52:42;;;;;;;;;;;21.10;99.90;;;;;;5097309;28;19931;-63
2022/04/01 07:55:12;;;;;;;;;;;21.00;99.90;;;;;;5097266;28;19942;-62
2022/04/01 07:57:40;;;;;;;;;;;21.00;99.90;;;;;;5095568;28;20281;-61
2022/04/01 08:00:12;;;;;;;;;;;20.90;99.90;;;;;;5096585;28;19924;-63
2022/04/01 08:02:40;;;;;;;;;;;20.90;99.90;;;;;;5099070;28;19923;-60
2022/04/01 08:05:08;;;;;;;;;;;20.80;99.90;;;;;;5096686;28;19951;-58
2022/04/01 08:07:35;;;;;;;;;;;20.80;99.90;;;;;;5091014;28;20392;-62
2022/04/01 08:10:04;;;;;;;;;;;20.80;99.90;;;;;;5102708;28;19930;-61
2022/04/01 08:12:40;;;;;;;;;;;20.80;99.90;;;;;;5103162;28;19924;-60
2022/04/01 08:15:08;;;;;;;;;;;20.90;99.90;;;;;;5101565;28;19958;-61
2022/04/01 08:17:35;;;;;;;;;;;21.00;99.90;;;;;;5100875;28;19924;-61
2022/04/01 08:20:03;;;;;;;;;;;21.10;99.90;;;;;;5093667;28;20309;-62
2022/04/01 08:22:30;;;;;;;;;;;21.20;99.90;;;;;;5086998;28;19927;-60
2022/04/01 08:24:57;;;;;;;;;;;21.30;99.90;;;;;;5085483;28;20026;-62
2022/04/01 08:27:25;;;;;;;;;;;21.40;99.90;;;;;;5092292;28;19966;-62
2022/04/01 08:29:57;;;;;;;;;;;21.50;99.90;;;;;;5092232;28;20613;-63
2022/04/01 08:32:24;;;;;;;;;;;21.50;99.90;;;;;;5099267;28;19930;-62
2022/04/01 08:34:51;;;;;;;;;;;21.50;99.90;;;;;;5090581;28;19923;-61
2022/04/01 08:37:18;;;;;;;;;;;21.60;99.90;;;;;;5095441;28;19928;-61
2022/04/01 08:39:53;;;;;;;;;;;21.60;99.90;;;;;;5090435;28;19946;-61
2022/04/01 08:42:21;;;;;;;;;;;21.60;99.90;;;;;;5077257;28;19935;-60
2022/04/01 08:44:51;;;;;;;;;;;21.60;99.90;;;;;;5095649;28;19931;-63
2022/04/01 08:47:18;;;;;;;;;;;21.60;99.90;;;;;;5101781;28;19928;-60
2022/04/01 08:49:46;;;;;;;;;;;21.50;99.90;;;;;;5096851;28;19928;-59
2022/04/01 08:52:13;;;;;;;;;;;21.50;99.90;;;;;;5097610;28;19923;-60
2022/04/01 08:54:41;;;;;;;;;;;21.50;99.90;;;;;;5090466;28;19924;-61
2022/04/01 08:57:08;;;;;;;;;;;21.50;99.90;;;;;;5098207;28;20432;-60
2022/04/01 08:59:37;;;;;;;;;;;21.50;99.90;;;;;;5103798;28;19935;-59
2022/04/01 09:02:06;;;;;;;;;;;21.50;99.90;;;;;;5098792;28;20549;-59
2022/04/01 09:04:33;;;;;;;;;;;21.50;99.90;;;;;;5095494;28;20396;-60
2022/04/01 09:07:10;;;;;;;;;;;21.50;99.90;;;;;;5096542;28;19923;-63
2022/04/01 09:09:37;;;;;;;;;;;21.40;99.90;;;;;;5105813;28;20363;-61
2022/04/01 09:12:05;;;;;;;;;;;21.40;99.90;;;;;;5099258;28;19924;-60
2022/04/01 09:14:33;;;;;;;;;;;21.40;99.90;;;;;;5106956;28;19924;-62
2022/04/01 09:17:01;;;;;;;;;;;21.30;99.90;;;;;;5096528;28;19924;-60
2022/04/01 09:19:29;;;;;;;;;;;21.30;99.90;;;;;;5076471;28;19935;-60
2022/04/01 09:21:56;;;;;;;;;;;21.30;99.90;;;;;;5091479;28;20646;-63
2022/04/01 09:24:25;;;;;;;;;;;21.30;99.90;;;;;;5100473;28;19935;-60
2022/04/01 09:26:53;;;;;;;;;;;21.20;99.90;;;;;;5075198;28;19920;-60
2022/04/01 09:29:21;;;;;;;;;;;21.20;99.90;;;;;;5087385;28;19927;-62
2022/04/01 09:31:51;;;;;;;;;;;21.10;99.90;;;;;;5095347;28;19931;-61
2022/04/01 09:34:19;;;;;;;;;;;21.10;99.90;;;;;;5103055;28;19924;-60
2022/04/01 09:36:46;;;;;;;;;;;21.00;99.90;;;;;;5106431;28;19924;-58
2022/04/01 09:39:14;;;;;;;;;;;21.00;99.90;;;;;;5105599;28;19939;-60
2022/04/01 09:41:49;;;;;;;;;;;21.00;99.90;;;;;;5091366;28;19928;-60
2022/04/01 09:44:27;;;;;;;;;;;21.00;99.90;;;;;;5092365;28;19935;-62
2022/04/01 09:46:56;;;;;;;;;;;21.00;99.90;;;;;;5097551;28;19952;-61
2022/04/01 09:49:29;;;;;;;;;;;21.00;99.90;;;;;;5094458;28;19923;-62
2022/04/01 09:52:02;;;;;;;;;;;21.00;99.90;;;;;;5097554;28;19923;-61
2022/04/01 09:54:29;;;;;;;;;;;21.10;99.90;;;;;;5102792;28;19924;-61
2022/04/01 09:56:58;;;;;;;;;;;21.30;99.90;;;;;;5092612;28;19946;-60
2022/04/01 09:59:31;;;;;;;;;;;21.40;99.90;;;;;;5104567;28;20300;-61
2022/04/01 10:01:59;;;;;;;;;;;21.40;99.90;;;;;;5095219;28;19939;-62
2022/04/01 10:04:27;;;;;;;;;;;21.50;99.90;;;;;;5101118;28;19981;-58
2022/04/01 10:06:54;;;;;;;;;;;21.50;99.90;;;;;;5095705;28;19923;-60
2022/04/01 10:09:22;;;;;;;;;;;21.50;99.90;;;;;;5094554;28;19950;-58
2022/04/01 10:12:11;;;;;;;;;;;21.60;99.90;;;;;;5099843;28;19934;-57
2022/04/01 10:14:40;;;;;;;;;;;21.40;99.90;;;;;;5095099;28;20114;-61
2022/04/01 10:17:24;;;;;;;;;;;21.40;99.90;;;;;;5076146;28;20284;-57
2022/04/01 10:19:52;;;;;;;;;;;21.40;99.90;;;;;;5090332;28;19924;-59
2022/04/01 10:22:20;;;;;;;;;;;21.40;99.90;;;;;;5085049;28;19935;-59
2022/04/01 10:24:47;;;;;;;;;;;21.40;99.90;;;;;;5096514;28;19931;-57
2022/04/01 10:27:17;;;;;;;;;;;21.30;99.90;;;;;;5097822;28;19924;-60
2022/04/01 10:29:45;;;;;;;;;;;21.30;99.90;;;;;;5097157;28;19942;-60
2022/04/01 10:32:36;;;;;;;;;;;21.30;99.90;;;;;;5096961;28;19930;-58
2022/04/01 10:35:04;;;;;;;;;;;21.30;99.90;;;;;;5092814;28;20261;-59
2022/04/01 10:37:33;;;;;;;;;;;21.20;99.90;;;;;;5098469;28;19924;-60
2022/04/01 10:40:17;;;;;;;;;;;21.20;99.90;;;;;;5089486;28;20009;-58
2022/04/01 10:42:46;;;;;;;;;;;21.10;99.90;;;;;;5108813;28;19919;-60
2022/04/01 10:45:13;;;;;;;;;;;21.10;99.90;;;;;;5107663;28;19919;-57
2022/04/01 10:53:45;;;;;;;;;;;21.10;99.90;;;;;;5076912;28;20411;-60
2022/04/01 10:56:22;;;;;;;;;;;21.00;99.90;;;;;;5089386;28;19931;-61
2022/04/01 10:59:08;;;;;;;;;;;21.00;99.90;;;;;;5093189;28;19924;-59
2022/04/01 11:01:53;;;;;;;;;;;20.90;99.90;;;;;;5095626;28;19924;-60
2022/04/01 11:04:21;;;;;;;;;;;20.90;99.90;;;;;;5081639;28;19923;-59
2022/04/01 11:06:54;;;;;;;;;;;20.90;99.90;;;;;;5089705;28;20412;-60
2022/04/01 11:09:34;;;;;;;;;;;20.80;99.90;;;;;;5088343;28;19919;-56
2022/04/01 11:12:21;;;;;;;;;;;20.80;99.90;;;;;;5091340;28;20329;-61
2022/04/01 11:17:36;;;;;;;;;;;20.90;99.90;;;;;;5095657;28;19923;-60
2022/04/01 11:20:10;;;;;;;;;;;21.00;99.90;;;;;;5101442;28;20231;-58
2022/04/01 11:22:43;;;;;;;;;;;21.10;99.90;;;;;;5074362;28;19924;-60
2022/04/01 11:25:15;;;;;;;;;;;21.30;99.90;;;;;;5090504;28;19931;-62
2022/04/01 11:27:47;;;;;;;;;;;21.40;99.90;;;;;;5103426;28;19935;-62
2022/04/01 11:30:16;;;;;;;;;;;21.50;99.90;;;;;;5094429;28;20273;-59
2022/04/01 11:32:44;;;;;;;;;;;21.60;99.90;;;;;;5073144;28;20582;-60
2022/04/01 11:35:13;;;;;;;;;;;21.60;99.90;;;;;;5092836;28;20392;-58
2022/04/01 11:37:41;;;;;;;;;;;21.60;99.90;;;;;;5101142;28;20309;-61
2022/04/01 11:40:10;;;;;;;;;;;21.60;99.90;;;;;;5092665;28;19931;-60
2022/04/01 11:42:56;;;;;;;;;;;21.60;99.90;;;;;;5095364;28;20423;-59
2022/04/01 11:45:27;;;;;;;;;;;21.60;99.90;;;;;;5100371;28;20280;-61
2022/04/01 11:47:54;;;;;;;;;;;21.60;99.90;;;;;;5093279;28;19926;-59
2022/04/01 11:50:22;;;;;;;;;;;21.60;99.90;;;;;;5093777;28;19920;-61
2022/04/01 11:52:55;;;;;;;;;;;21.50;99.90;;;;;;5094571;28;19923;-59
2022/04/01 11:55:24;;;;;;;;;;;21.40;99.90;;;;;;5096761;28;19923;-60
2022/04/01 11:57:55;;;;;;;;;;;21.30;99.90;;;;;;5098482;28;20398;-60
2022/04/01 12:00:24;;;;;;;;;;;21.30;99.90;;;;;;5097025;28;20303;-59
2022/04/01 12:02:52;;;;;;;;;;;21.30;99.90;;;;;;5091910;28;19927;-59
2022/04/01 12:05:20;;;;;;;;;;;21.30;99.90;;;;;;5088844;28;19931;-60
2022/04/01 12:10:41;;;;;;;;;;;21.20;99.90;;;;;;5087745;28;19935;-60
2022/04/01 12:13:09;;;;;;;;;;;21.20;99.90;;;;;;5089716;28;19924;-59
2022/04/01 12:15:38;;;;;;;;;;;21.20;99.90;;;;;;5098030;28;19928;-59
2022/04/01 12:18:07;;;;;;;;;;;21.10;99.90;;;;;;5081434;28;20336;-60
2022/04/01 12:20:38;;;;;;;;;;;21.10;99.90;;;;;;5088861;28;19974;-62
2022/04/01 12:23:09;;;;;;;;;;;21.00;99.90;;;;;;5079893;28;19924;-59
2022/04/01 12:25:37;;;;;;;;;;;21.00;99.90;;;;;;5095927;28;20411;-59
2022/04/01 12:28:07;;;;;;;;;;;21.00;99.90;;;;;;5081062;28;20301;-60
2022/04/01 12:30:36;;;;;;;;;;;20.90;99.90;;;;;;5098012;28;19935;-58
2022/04/01 12:33:06;;;;;;;;;;;20.90;99.90;;;;;;5073684;28;20388;-59
2022/04/01 12:35:52;;;;;;;;;;;20.90;99.90;;;;;;5103644;28;19935;-56
2022/04/01 12:38:19;;;;;;;;;;;20.90;99.90;;;;;;5083583;28;19931;-61
2022/04/01 12:40:46;;;;;;;;;;;20.90;99.90;;;;;;5098506;28;19928;-57
2022/04/01 12:43:29;;;;;;;;;;;20.90;99.90;;;;;;5092608;28;19923;-58
2022/04/01 12:45:58;;;;;;;;;;;21.00;99.90;;;;;;5083690;28;19934;-57
2022/04/01 12:48:26;;;;;;;;;;;21.10;99.90;;;;;;5100105;28;19923;-58
2022/04/01 12:50:55;;;;;;;;;;;21.10;99.90;;;;;;5103952;28;19989;-58
2022/04/01 12:53:22;;;;;;;;;;;21.20;99.90;;;;;;5098811;28;19927;-57
2022/04/01 12:55:50;;;;;;;;;;;21.30;99.90;;;;;;5105430;28;19923;-59
2022/04/01 12:58:17;;;;;;;;;;;21.40;99.90;;;;;;5096755;28;19923;-60
2022/04/01 13:00:44;;;;;;;;;;;21.40;99.90;;;;;;5095666;28;19924;-58
2022/04/01 13:03:11;;;;;;;;;;;21.50;99.90;;;;;;5093120;28;19920;-57
2022/04/01 13:05:38;;;;;;;;;;;21.50;99.90;;;;;;5094543;28;19927;-58
2022/04/01 13:08:08;;;;;;;;;;;21.50;99.90;;;;;;5094490;28;19942;-58
2022/04/01 13:10:36;;;;;;;;;;;21.50;99.90;;;;;;5102148;28;19946;-57
2022/04/01 13:13:15;;;;;;;;;;;21.50;99.90;;;;;;5095328;28;19924;-58
2022/04/01 13:15:48;;;;;;;;;;;21.40;99.90;;;;;;5101416;28;20394;-60
2022/04/01 13:18:22;;;;;;;;;;;21.40;99.90;;;;;;5102661;28;20316;-60
2022/04/01 13:20:49;;;;;;;;;;;21.40;99.90;;;;;;5095356;28;20478;-58
2022/04/01 13:23:17;;;;;;;;;;;21.40;99.90;;;;;;5078523;28;20411;-60
2022/04/01 13:25:44;;;;;;;;;;;21.40;99.90;;;;;;5077970;28;19931;-58
2022/04/01 13:28:11;;;;;;;;;;;21.30;99.90;;;;;;5098330;28;20383;-60
2022/04/01 13:30:39;;;;;;;;;;;21.30;99.90;;;;;;5096433;28;19920;-61
2022/04/01 13:33:07;;;;;;;;;;;21.30;99.90;;;;;;5099192;28;19924;-61
2022/04/01 13:35:34;;;;;;;;;;;21.20;99.90;;;;;;5092044;28;19931;-60
2022/04/01 13:38:01;;;;;;;;;;;21.30;99.90;;;;;;5100976;28;19934;-56
2022/04/01 13:40:28;;;;;;;;;;;21.20;99.90;;;;;;5098632;28;20578;-58
2022/04/01 13:42:59;;;;;;;;;;;21.20;99.90;;;;;;5095394;28;19946;-59
2022/04/01 13:45:26;;;;;;;;;;;21.20;99.90;;;;;;5097957;28;20423;-58
2022/04/01 13:47:55;;;;;;;;;;;21.20;99.90;;;;;;5082654;28;19919;-59
2022/04/01 13:50:22;;;;;;;;;;;21.20;99.90;;;;;;5097389;28;19931;-57
2022/04/01 13:52:49;;;;;;;;;;;21.20;99.90;;;;;;5082339;28;19924;-60
2022/04/01 13:55:16;;;;;;;;;;;21.10;99.90;;;;;;5103642;28;20300;-63
2022/04/01 13:57:44;;;;;;;;;;;21.10;99.90;;;;;;5103646;28;19923;-64
2022/04/01 14:00:11;;;;;;;;;;;21.10;99.90;;;;;;5095606;28;20408;-61
2022/04/01 14:02:40;;;;;;;;;;;21.00;99.90;;;;;;5092205;28;19950;-61
2022/04/01 14:05:07;;;;;;;;;;;21.00;99.90;;;;;;5096365;28;19923;-63
2022/04/01 14:07:35;;;;;;;;;;;21.00;99.90;;;;;;5103163;28;19931;-62
2022/04/01 14:10:03;;;;;;;;;;;21.00;99.90;;;;;;5102150;28;19920;-61
2022/04/01 14:12:31;;;;;;;;;;;21.00;99.90;;;;;;5094281;28;20412;-64
2022/04/01 14:14:59;;;;;;;;;;;21.00;99.90;;;;;;5082854;28;19920;-62
2022/04/01 14:17:27;;;;;;;;;;;21.00;99.90;;;;;;5100878;28;19946;-64
2022/04/01 14:19:55;;;;;;;;;;;21.00;99.90;;;;;;5104748;28;20759;-63
2022/04/01 14:22:22;;;;;;;;;;;21.10;99.90;;;;;;5096069;28;20002;-59
2022/04/01 14:24:49;;;;;;;;;;;21.20;99.90;;;;;;5102238;28;20332;-60
2022/04/01 14:27:16;;;;;;;;;;;21.30;99.90;;;;;;5103747;28;20300;-59
2022/04/01 14:32:30;;;;;;;;;;;21.50;99.90;;;;;;5096122;28;19928;-63
2022/04/01 14:34:58;;;;;;;;;;;21.60;99.90;;;;;;5090768;28;19923;-62
2022/04/01 14:37:25;;;;;;;;;;;21.60;99.90;;;;;;5104150;28;19946;-61
2022/04/01 14:39:53;;;;;;;;;;;21.60;99.90;;;;;;5098793;28;19931;-63
2022/04/01 14:42:20;;;;;;;;;;;21.60;99.90;;;;;;5098354;28;19930;-64
2022/04/01 14:44:47;;;;;;;;;;;21.60;99.90;;;;;;5104784;28;19931;-62
2022/04/01 14:47:14;;;;;;;;;;;21.50;99.90;;;;;;5082580;28;19934;-64
2022/04/01 14:49:41;;;;;;;;;;;21.60;99.90;;;;;;5094949;28;20333;-64
2022/04/01 14:52:11;;;;;;;;;;;21.60;99.90;;;;;;5100718;28;19935;-60
2022/04/01 14:54:39;;;;;;;;;;;21.60;99.90;;;;;;5095307;28;19923;-61